Spring Creek, South Dakota
Current Conditions -  °F | °C
As of 2:52 PM on Monday 24 Nov 2014 (Local Time) from KVTN Reporting Station
Clear Clear  
Wind Chill: 26°   Ceiling: Unl
Heat Index: 35°   Visibility: 10mi
Dew Point: 18°   Wind: 15mph
Humidity: 50%   Direction: 330°NNW
Pressure: 29.91"   Gusts: NA
Location:  43.1381°N, 100.965°W
Report Text: KVTN 242052Z AUTO 33013KT 10SM CLR 02/M08 A2991 RMK AO2 SLP157 T00171078 53014
Loading
Personal Weather Stations






























Interactive Weather Map New forecast layout! Learn more

10-Day Weather Forecast

Advertisements
Track Severe Weather on mobile